Flight Track Log - Related Links

Times and Time Zones

All times are in EDT time to prevent confusion due to time zone crossing. See the CPT7773 flight status page for this flight to view local times or setup timezone preferences in your user account.

Time Position Orientation Groundspeed Altitude Reporting Facility
EDT Latitude Longitude Course Direction KTS MPH feet Rate Location/Type
Wed 08:04:43 PM 44.5319 -108.9650 133° Southeast 145 167 6,700  Level Salt Lake Center
Wed 08:05:45 PM 44.5231 -108.9169 105° East 131 151 7,700 927 Climbing Salt Lake Center
Wed 08:06:46 PM 44.5156 -108.8636 101° East 135 155 8,600 927 Climbing Salt Lake Center
Wed 08:07:48 PM 44.5119 -108.7972 94° East 140 161 9,600 919 Climbing Salt Lake Center
Wed 08:08:50 PM 44.4858 -108.7522 129° Southeast 143 165 10,500 677 Climbing Salt Lake Center
Wed 08:09:52 PM 44.4569 -108.7122 135° Southeast 144 166 11,000 244 Climbing Salt Lake Center
Wed 08:10:00 PM 44.3312 -108.7116 133° Southeast  Level Estimated
Wed 08:10:53 PM 44.4244 -108.6606 131° Southeast 157 181 11,000  Level Salt Lake Center
Wed 08:11:55 PM 44.3892 -108.6061 132° Southeast 172 198 11,000  Level Salt Lake Center
Wed 08:12:57 PM 44.3544 -108.5531 132° Southeast 180 207 11,000  Level Salt Lake Center
Wed 08:13:59 PM 44.3133 -108.4894 132° Southeast 183 211 11,000  Level Salt Lake Center
Wed 08:15:00 PM 44.2778 -108.4344 132° Southeast 186 214 11,000  Level Salt Lake Center
Wed 08:16:02 PM 44.2428 -108.3806 132° Southeast 188 216 11,000  Level Salt Lake Center
Wed 08:17:04 PM 44.2081 -108.3267 132° Southeast 188 216 11,000  Level Salt Lake Center
Wed 08:18:06 PM 44.1731 -108.2728 132° Southeast 188 216 11,000  Level Salt Lake Center
Wed 08:19:07 PM 44.1372 -108.2178 132° Southeast 190 219 11,000  Level Salt Lake Center
Wed 08:20:09 PM 44.1019 -108.1650 133° Southeast 189 217 11,000  Level Salt Lake Center
Wed 08:21:11 PM 44.0594 -108.0994 132° Southeast 190 219 11,000 48 Level Salt Lake Center
Wed 08:22:13 PM 44.0236 -108.0436 132° Southeast 192 221 11,100  Climbing Salt Lake Center
Wed 08:23:15 PM 43.9867 -107.9892 133° Southeast 193 222 11,000 -48 Descending Salt Lake Center
Wed 08:24:17 PM 43.9522 -107.9350 131° Southeast 192 221 11,000  Level Salt Lake Center
Wed 08:25:18 PM 43.9211 -107.8756 126° Southeast 190 219 11,000 49 Level Salt Lake Center
Wed 08:26:20 PM 43.8919 -107.8147 124° Southeast 190 219 11,100 48 Climbing Salt Lake Center
Wed 08:27:22 PM 43.8542 -107.7419 126° Southeast 192 221 11,100  Level Salt Lake Center
Wed 08:28:24 PM 43.8239 -107.6819 125° Southeast 192 221 11,100 -48 Level Salt Lake Center
Wed 08:29:26 PM 43.7933 -107.6231 126° Southeast 191 220 11,000 -48 Descending Salt Lake Center
Wed 08:30:28 PM 43.7619 -107.5633 126° Southeast 191 220 11,000  Level Salt Lake Center
Wed 08:31:29 PM 43.7319 -107.5031 125° Southeast 191 220 11,000 49 Level Salt Lake Center
Wed 08:32:31 PM 43.7006 -107.4428 126° Southeast 192 221 11,100  Climbing Salt Lake Center
Wed 08:33:33 PM 43.6639 -107.3728 126° Southeast 191 220 11,000 -48 Descending Salt Lake Center
Wed 08:34:35 PM 43.6342 -107.3150 125° Southeast 188 216 11,000 48 Level Salt Lake Center
Wed 08:35:37 PM 43.6028 -107.2569 127° Southeast 188 216 11,100  Climbing Salt Lake Center
Wed 08:36:39 PM 43.5742 -107.1967 123° Southeast 187 215 11,000 -49 Descending Salt Lake Center
Wed 08:37:40 PM 43.5439 -107.1394 126° Southeast 187 215 11,000 49 Level Salt Lake Center
Wed 08:38:42 PM 43.5133 -107.0814 126° Southeast 187 215 11,100 48 Climbing Salt Lake Center
Wed 08:39:44 PM 43.4825 -107.0253 127° Southeast 185 213 11,100 -48 Level Salt Lake Center
Wed 08:40:46 PM 43.4453 -106.9547 126° Southeast 189 217 11,000 -48 Descending Salt Lake Center
Wed 08:41:48 PM 43.4164 -106.8997 126° Southeast 185 213 11,000 48 Level Salt Lake Center
Wed 08:42:50 PM 43.3897 -106.8447 124° Southeast 182 209 11,100 -146 Climbing Salt Lake Center
Wed 08:43:51 PM 43.3447 -106.7969 142° Southeast 182 209 10,700 -488 Descending Salt Lake Center
Wed 08:44:53 PM 43.2953 -106.7664 156° South 196 226 10,100 -581 Descending Salt Lake Center
Wed 08:45:55 PM 43.2419 -106.7256 151° Southeast 199 229 9,500 -581 Descending Salt Lake Center
Wed 08:46:57 PM 43.2011 -106.6875 146° Southeast 192 221 8,900 -585 Descending Salt Lake Center
Wed 08:47:58 PM 43.1508 -106.6458 149° Southeast 190 219 8,300 -583 Descending Salt Lake Center
Wed 08:48:40 PM 43.1203 -106.6200 148° Southeast 192 221 7,900 -462 Descending Denver Center
Wed 08:49:42 PM 43.0772 -106.5825 148° Southeast 193 222 7,500 -488 Descending Denver Center
Wed 08:50:43 PM 43.0289 -106.5394 147° Southeast 190 219 6,900 -293 Descending Denver Center
Wed 08:51:45 PM 42.9881 -106.5017 146° Southeast 188 216 6,900 -97 Level Denver Center
Wed 08:52:47 PM 42.9528 -106.4719 148° Southeast 172 198 6,700 -194 Descending Denver Center

Login

Don't have an account? Register now (free) for customized features, flight alerts, and more!